Time;durP1;ratioP1;P1;durP2;ratioP2;P2;SDS_P1;SDS_P2;PMS_P1;PMS_P2;Temp;Humidity;BMP_temperature;BMP_pressure;BME280_temperature;BME280_humidity;BME280_pressure;Samples;Min_cycle;Max_cycle;Signal;HPM_P1;HPM_P2
2023/11/08 00:00:49;;;;;;;15.13;9.53;;;;;;;8.06;100.00;99973.25;4958533;28;20256;-76
2023/11/08 00:03:15;;;;;;;18.38;9.68;;;;;;;7.95;100.00;99954.97;4989484;28;20313;-73
2023/11/08 00:05:41;;;;;;;24.17;10.40;;;;;;;7.92;100.00;99956.13;4947924;28;20027;-75
2023/11/08 00:08:07;;;;;;;17.15;10.52;;;;;;;7.93;100.00;99949.81;4949770;28;20051;-74
2023/11/08 00:10:34;;;;;;;15.43;9.00;;;;;;;7.86;100.00;99948.81;4943347;28;20114;-74
2023/11/08 00:12:59;;;;;;;17.10;9.98;;;;;;;7.97;100.00;99972.41;4940641;28;20031;-74
2023/11/08 00:15:26;;;;;;;17.75;8.95;;;;;;;8.03;100.00;99966.47;4965579;28;20043;-75
2023/11/08 00:17:52;;;;;;;16.95;9.85;;;;;;;8.01;100.00;99968.44;4935793;28;20495;-75
2023/11/08 00:20:17;;;;;;;17.77;10.40;;;;;;;7.94;100.00;99980.72;4954920;28;20029;-74
2023/11/08 00:22:44;;;;;;;20.43;9.87;;;;;;;7.93;100.00;99996.84;4947059;28;20027;-75
2023/11/08 00:25:11;;;;;;;17.55;9.65;;;;;;;7.98;100.00;99998.03;4953905;28;20110;-75
2023/11/08 00:27:36;;;;;;;;;;;;;;;8.00;100.00;99998.66;4953840;28;20035;-75
2023/11/08 00:30:03;;;;;;;20.45;10.20;;;;;;;7.98;100.00;99998.03;4954867;28;19917;-75
2023/11/08 00:32:28;;;;;;;21.38;10.85;;;;;;;7.92;100.00;100003.97;4972134;28;20040;-75
2023/11/08 00:34:54;;;;;;;19.67;11.52;;;;;;;7.85;100.00;100016.25;4969971;28;20019;-74
2023/11/08 00:37:20;;;;;;;21.90;11.30;;;;;;;7.89;100.00;100014.94;4954136;28;20061;-74
2023/11/08 00:39:46;;;;;;;;;;;;;;;7.83;100.00;100012.94;4968192;28;20024;-75
2023/11/08 00:42:11;;;;;;;17.13;11.27;;;;;;;7.81;100.00;100015.75;4955946;28;20306;-75
2023/11/08 00:44:37;;;;;;;19.77;10.10;;;;;;;7.86;100.00;100007.28;4962140;28;20046;-75
2023/11/08 00:47:02;;;;;;;19.73;10.80;;;;;;;7.96;100.00;100015.97;4930129;28;20024;-75
2023/11/08 00:49:28;;;;;;;16.33;9.77;;;;;;;7.88;100.00;99996.50;4981748;28;20037;-75
2023/11/08 00:51:53;;;;;;;20.90;10.90;;;;;;;7.89;100.00;100006.97;4964153;28;20081;-75
2023/11/08 00:54:19;;;;;;;14.77;11.05;;;;;;;7.98;100.00;100003.34;4952971;28;20093;-75
2023/11/08 00:56:45;;;;;;;15.93;10.05;;;;;;;8.06;100.00;99988.41;4988616;28;20463;-75
2023/11/08 00:59:10;;;;;;;16.20;10.90;;;;;;;7.99;100.00;99980.25;4952816;28;20039;-75
2023/11/08 01:01:36;;;;;;;16.27;9.57;;;;;;;8.06;100.00;99975.94;4951392;28;20517;-75
2023/11/08 01:04:06;;;;;;;16.88;9.85;;;;;;;7.99;100.00;99957.13;4950072;28;20500;-75
2023/11/08 01:06:32;;;;;;;17.67;10.90;;;;;;;8.06;100.00;99957.31;4989562;28;20035;-75
2023/11/08 01:08:57;;;;;;;18.80;11.05;;;;;;;7.98;100.00;99933.38;4987127;28;20452;-75
2023/11/08 01:11:23;;;;;;;16.17;9.07;;;;;;;7.95;100.00;99934.53;4949977;28;20396;-76
2023/11/08 01:13:48;;;;;;;17.10;9.80;;;;;;;8.09;100.00;99943.69;4929809;28;20287;-75
2023/11/08 01:16:13;;;;;;;18.10;9.87;;;;;;;7.99;100.00;99924.41;4961751;28;20041;-75
2023/11/08 01:18:39;;;;;;;13.93;8.53;;;;;;;7.91;100.00;99919.09;5046098;28;20037;-75
2023/11/08 01:21:05;;;;;;;15.63;10.13;;;;;;;8.15;100.00;99939.53;5045857;28;20370;-75
2023/11/08 01:23:31;;;;;;;16.35;9.10;;;;;;;8.09;100.00;99914.44;5047228;28;20047;-75
2023/11/08 01:25:56;;;;;;;14.23;9.53;;;;;;;8.07;100.00;99920.91;5046147;28;20086;-75
2023/11/08 01:28:21;;;;;;;13.57;8.87;;;;;;;8.12;100.00;99916.75;5006521;28;20034;-75
2023/11/08 01:30:48;;;;;;;16.97;8.83;;;;;;;7.93;100.00;99894.00;5021553;28;20040;-75
2023/11/08 01:33:13;;;;;;;;;;;;;;;8.01;100.00;99917.09;5046079;28;20552;-75
2023/11/08 01:35:39;;;;;;;12.82;8.10;;;;;;;8.07;100.00;99910.28;5045757;28;20040;-75
2023/11/08 01:38:04;;;;;;;15.20;8.33;;;;;;;8.12;100.00;99918.59;5000043;28;20123;-75
2023/11/08 01:40:29;;;;;;;19.60;8.07;;;;;;;8.06;100.00;99903.31;4984799;28;20511;-75
2023/11/08 01:42:55;;;;;;;10.13;7.28;;;;;;;8.05;100.00;99910.44;4982599;28;20024;-75
2023/11/08 01:45:21;;;;;;;11.85;6.95;;;;;;;8.06;100.00;99901.50;4991220;28;20172;-75
2023/11/08 01:47:48;;;;;;;10.73;7.63;;;;;;;7.99;100.00;99890.69;4987736;28;20023;-75
2023/11/08 01:50:15;;;;;;;11.70;7.18;;;;;;;7.91;100.00;99885.34;4948620;28;20966;-75
2023/11/08 01:52:41;;;;;;;12.38;7.28;;;;;;;7.97;100.00;99891.84;4947002;28;20027;-75
2023/11/08 01:55:07;;;;;;;;;;;;;;;8.08;100.00;99901.31;4952576;28;20035;-75
2023/11/08 01:57:33;;;;;;;10.60;6.15;;;;;;;8.02;100.00;99886.88;5038632;28;20318;-75
2023/11/08 01:59:59;;;;;;;12.50;7.85;;;;;;;8.11;100.00;99895.66;5004730;28;20071;-75
2023/11/08 02:02:25;;;;;;;13.60;7.35;;;;;;;8.03;100.00;99889.38;5028833;28;20046;-75
2023/11/08 02:04:53;;;;;;;16.08;7.38;;;;;;;8.03;100.00;99893.84;4981918;28;20025;-75
2023/11/08 02:07:18;;;;;;;13.52;7.00;;;;;;;8.07;100.00;99912.94;4962857;28;20084;-75
2023/11/08 02:09:44;;;;;;;14.50;6.67;;;;;;;8.05;100.00;99902.47;5011885;28;20034;-75
2023/11/08 02:12:10;;;;;;;;;;;;;;;8.02;100.00;99897.50;5035929;28;20273;-75
2023/11/08 02:14:35;;;;;;;10.90;6.70;;;;;;;8.16;100.00;99899.47;5045269;28;20003;-75
2023/11/08 02:17:02;;;;;;;11.80;7.17;;;;;;;8.17;100.00;99884.34;5044710;28;20025;-76
2023/11/08 02:19:27;;;;;;;;;;;;;;;8.20;100.00;99900.81;5004565;28;20020;-75
2023/11/08 02:21:52;;;;;;;15.48;8.07;;;;;;;8.15;100.00;99881.88;5024125;28;20293;-75
2023/11/08 02:24:20;;;;;;;13.80;8.27;;;;;;;8.12;100.00;99873.38;5000134;28;20893;-75
2023/11/08 02:26:48;;;;;;;11.93;8.35;;;;;;;8.22;100.00;99887.34;4970424;28;20027;-75
2023/11/08 02:29:15;;;;;;;11.85;7.70;;;;;;;8.12;100.00;99882.19;4928896;28;20081;-75
2023/11/08 02:31:41;;;;;;;12.50;7.75;;;;;;;8.18;100.00;99891.34;4944732;28;20032;-75
2023/11/08 02:34:09;;;;;;;15.40;8.40;;;;;;;8.19;100.00;99891.19;4986234;28;20361;-75
2023/11/08 02:36:38;;;;;;;15.10;8.13;;;;;;;8.22;100.00;99898.00;5010597;28;20044;-75
2023/11/08 02:39:03;;;;;;;11.82;7.95;;;;;;;8.16;100.00;99902.13;5000560;28;20038;-75
2023/11/08 02:41:32;;;;;;;14.88;8.10;;;;;;;8.06;100.00;99888.19;4944352;28;20035;-75
2023/11/08 02:43:58;;;;;;;11.57;8.30;;;;;;;8.23;100.00;99904.97;4944331;28;20054;-75
2023/11/08 02:46:23;;;;;;;15.27;8.70;;;;;;;8.14;100.00;99888.19;4944437;28;20509;-76
2023/11/08 02:48:49;;;;;;;13.45;8.25;;;;;;;8.22;100.00;99912.13;4956466;28;20735;-75
2023/11/08 02:51:15;;;;;;;16.13;8.70;;;;;;;8.34;100.00;99922.41;4934507;28;20118;-75
2023/11/08 02:53:40;;;;;;;14.07;8.85;;;;;;;8.14;100.00;99895.31;4939725;28;20404;-75
2023/11/08 02:56:06;;;;;;;12.80;8.45;;;;;;;8.15;100.00;99907.63;4971380;28;20042;-75
2023/11/08 02:58:31;;;;;;;12.70;7.77;;;;;;;8.13;100.00;99909.63;5044568;28;20581;-75
2023/11/08 03:00:56;;;;;;;12.80;8.33;;;;;;;8.11;100.00;99911.63;5043951;28;20374;-75
2023/11/08 03:03:22;;;;;;;17.17;9.30;;;;;;;8.17;100.00;99911.78;5045392;28;20043;-75
2023/11/08 03:06:08;;;;;;;15.93;8.90;;;;;;;8.23;100.00;99912.94;5044721;28;20044;-75
2023/11/08 03:08:53;;;;;;;14.35;8.30;;;;;;;8.13;100.00;99914.94;5044064;28;20048;-75
2023/11/08 03:11:38;;;;;;;10.70;6.53;;;;;;;8.21;100.00;99921.06;5003875;28;20060;-75
2023/11/08 03:14:21;;;;;;;12.95;8.57;;;;;;;8.10;100.00;99904.63;4989473;28;20100;-75
2023/11/08 03:17:05;;;;;;;15.27;10.00;;;;;;;8.16;100.00;99933.22;4990071;28;20059;-75
2023/11/08 03:19:49;;;;;;;14.20;9.15;;;;;;;8.20;100.00;99937.22;5005128;28;20078;-75
2023/11/08 03:22:34;;;;;;;15.35;9.18;;;;;;;8.28;100.00;99937.19;5016714;28;20071;-75
2023/11/08 03:25:18;;;;;;;14.88;9.45;;;;;;;8.23;100.00;99926.22;4992115;28;20082;-75
2023/11/08 03:27:43;;;;;;;12.87;9.03;;;;;;;8.26;100.00;99925.88;5025313;28;20063;-76
2023/11/08 03:30:12;;;;;;;12.88;9.20;;;;;;;8.23;100.00;99923.56;4986421;28;20509;-75
2023/11/08 03:32:38;;;;;;;12.55;7.65;;;;;;;8.26;100.00;99923.22;4970533;28;20028;-76
2023/11/08 03:35:05;;;;;;;;;;;;;;;8.24;100.00;99936.72;4981143;28;20799;-75
2023/11/08 03:37:34;;;;;;;18.13;8.75;;;;;;;8.12;100.00;99926.56;5012558;28;19970;-75
2023/11/08 03:40:00;;;;;;;15.90;9.88;;;;;;;8.21;100.00;99949.50;5049182;28;20060;-75
2023/11/08 03:42:25;;;;;;;13.57;8.85;;;;;;;8.15;100.00;99940.38;5023059;28;20021;-75
2023/11/08 03:44:51;;;;;;;12.67;8.53;;;;;;;8.17;100.00;99964.13;5049707;28;20031;-75
2023/11/08 03:47:17;;;;;;;13.02;8.43;;;;;;;8.12;100.00;99953.16;4995872;28;20542;-75
2023/11/08 03:49:42;;;;;;;13.03;8.63;;;;;;;8.23;100.00;99979.41;4956754;28;20031;-75
2023/11/08 03:52:07;;;;;;;12.80;7.83;;;;;;;8.22;100.00;99973.28;4983815;28;20697;-75
2023/11/08 03:54:33;;;;;;;15.53;9.07;;;;;;;8.24;100.00;99973.09;4989247;28;20079;-75
2023/11/08 03:57:00;;;;;;;14.07;8.47;;;;;;;8.22;100.00;99975.09;5003496;28;20301;-75
2023/11/08 03:59:26;;;;;;;17.08;8.80;;;;;;;8.26;100.00;99965.78;5010205;28;20044;-75
2023/11/08 04:01:52;;;;;;;13.68;8.88;;;;;;;8.26;100.00;99963.13;4961229;28;20019;-75
2023/11/08 04:04:17;;;;;;;13.13;8.35;;;;;;;8.36;100.00;99990.41;4998802;28;20048;-75
2023/11/08 04:06:43;;;;;;;13.20;8.80;;;;;;;8.21;100.00;99970.78;5007964;28;20016;-75
2023/11/08 04:09:08;;;;;;;12.60;8.17;;;;;;;8.25;100.00;99972.09;4983574;28;20369;-75
2023/11/08 04:11:34;;;;;;;10.98;8.63;;;;;;;8.16;100.00;99975.75;4987219;28;20037;-75
2023/11/08 04:13:59;;;;;;;16.33;9.10;;;;;;;8.14;100.00;99986.56;4987519;28;20031;-75
2023/11/08 04:16:25;;;;;;;13.23;8.43;;;;;;;8.20;100.00;100017.81;5018576;28;20033;-75
2023/11/08 04:18:51;;;;;;;14.85;9.13;;;;;;;8.24;100.00;100012.97;4976652;28;20059;-75
2023/11/08 04:21:17;;;;;;;13.95;9.13;;;;;;;8.11;100.00;100010.00;4987734;28;20443;-75
2023/11/08 04:23:43;;;;;;;12.13;9.38;;;;;;;8.20;100.00;100028.44;5009138;28;20481;-75
2023/11/08 04:26:08;;;;;;;14.98;8.52;;;;;;;8.25;100.00;100035.94;4966699;28;20128;-75
2023/11/08 04:28:40;;;;;;;13.47;9.47;;;;;;;8.19;100.00;100036.56;4987832;28;20401;-75
2023/11/08 04:31:05;;;;;;;14.50;9.10;;;;;;;8.24;100.00;100050.19;4977573;28;20315;-75
2023/11/08 04:33:31;;;;;;;12.13;9.27;;;;;;;8.24;100.00;100039.56;4989306;28;20559;-75
2023/11/08 04:35:58;;;;;;;22.27;9.67;;;;;;;8.12;100.00;100047.03;5022927;28;20017;-76
2023/11/08 04:38:24;;;;;;;33.92;10.07;;;;;;;8.03;100.00;100059.50;5015329;28;20202;-75
2023/11/08 04:40:49;;;;;;;18.98;10.57;;;;;;;7.96;100.00;100073.56;5043735;28;20521;-76
2023/11/08 04:43:15;;;;;;;13.63;9.63;;;;;;;8.08;100.00;100103.34;4990737;28;20039;-77
2023/11/08 04:45:41;;;;;;;19.08;10.13;;;;;;;7.86;100.00;100105.63;4983930;28;20100;-77
2023/11/08 04:48:06;;;;;;;17.77;11.32;;;;;;;7.85;100.00;100106.63;4964579;28;20438;-77
2023/11/08 04:50:32;;;;;;;17.53;11.80;;;;;;;7.95;100.00;100128.56;4957920;28;20361;-77
2023/11/08 04:52:57;;;;;;;19.75;12.25;;;;;;;7.97;100.00;100134.56;4977324;28;20031;-77
2023/11/08 04:55:22;;;;;;;18.27;10.80;;;;;;;7.90;100.00;100122.91;4972791;28;20039;-77
2023/11/08 04:57:48;;;;;;;21.47;11.50;;;;;;;7.89;100.00;100131.88;4992013;28;20040;-77
2023/11/08 05:00:14;;;;;;;20.23;11.63;;;;;;;7.94;100.00;100124.25;4982785;28;20027;-77
2023/11/08 05:02:40;;;;;;;;;;;;;;;7.89;100.00;100121.25;4981158;28;20048;-78
2023/11/08 05:05:06;;;;;;;17.83;11.40;;;;;;;7.81;100.00;100137.16;4945948;28;19910;-77
2023/11/08 05:07:31;;;;;;;22.80;12.60;;;;;;;7.93;100.00;100137.72;4942222;28;20035;-77
2023/11/08 05:09:56;;;;;;;17.40;11.13;;;;;;;7.92;100.00;100144.84;4961038;28;20035;-77
2023/11/08 05:12:22;;;;;;;17.07;11.23;;;;;;;8.00;100.00;100139.56;5003125;28;20038;-77
2023/11/08 05:14:48;;;;;;;18.80;10.85;;;;;;;7.85;100.00;100127.88;4974830;28;20126;-77
2023/11/08 05:17:16;;;;;;;14.23;9.85;;;;;;;7.91;100.00;100129.88;4931157;29;20032;-77
2023/11/08 05:19:42;;;;;;;22.10;9.88;;;;;;;7.82;100.00;100133.53;4961310;28;20038;-77
2023/11/08 05:22:08;;;;;;;16.30;9.75;;;;;;;7.97;100.00;100129.25;4946858;28;20035;-77
2023/11/08 05:24:33;;;;;;;14.57;9.73;;;;;;;7.94;100.00;100131.41;4961875;28;20038;-77
2023/11/08 05:26:59;;;;;;;19.77;10.43;;;;;;;7.96;100.00;100132.06;4975182;28;20035;-77
2023/11/08 05:29:25;;;;;;;12.35;9.10;;;;;;;8.04;100.00;100137.41;4946795;28;20046;-77
2023/11/08 05:31:50;;;;;;;15.50;9.20;;;;;;;7.97;100.00;100131.91;4946688;28;20035;-77
2023/11/08 05:34:15;;;;;;;12.47;9.40;;;;;;;7.98;100.00;100133.59;4941963;28;20027;-77
2023/11/08 05:36:41;;;;;;;14.43;10.10;;;;;;;7.97;100.00;100128.44;4947928;28;20294;-77
2023/11/08 05:39:06;;;;;;;15.93;9.00;;;;;;;7.92;100.00;100114.78;4976087;28;20062;-77
2023/11/08 05:41:32;;;;;;;14.80;9.57;;;;;;;7.88;100.00;100130.22;4985987;28;20275;-76
2023/11/08 05:43:58;;;;;;;19.30;10.20;;;;;;;7.95;100.00;100139.22;5002217;28;20455;-77
2023/11/08 05:46:25;;;;;;;14.65;8.35;;;;;;;7.85;100.00;100130.53;4986571;28;20857;-77
2023/11/08 05:48:50;;;;;;;16.05;9.18;;;;;;;7.97;100.00;100150.50;5002392;28;20053;-77
2023/11/08 05:51:15;;;;;;;20.07;9.27;;;;;;;7.97;100.00;100147.03;4963902;28;20071;-77
2023/11/08 05:53:41;;;;;;;14.03;9.80;;;;;;;7.89;100.00;100137.22;4979894;28;20025;-77
2023/11/08 05:56:06;;;;;;;14.23;8.63;;;;;;;8.04;100.00;100151.53;4973523;28;20050;-77
2023/11/08 05:58:35;;;;;;;17.60;9.60;;;;;;;8.07;100.00;100149.56;4989256;28;20070;-77
2023/11/08 06:01:02;;;;;;;12.32;8.35;;;;;;;7.99;100.00;100143.22;5019774;28;20603;-77
2023/11/08 06:03:28;;;;;;;14.45;8.15;;;;;;;8.07;100.00;100149.56;5012708;28;20075;-77
2023/11/08 06:05:53;;;;;;;15.25;8.60;;;;;;;8.02;100.00;100136.75;5004360;28;20040;-76
2023/11/08 06:08:18;;;;;;;15.60;8.77;;;;;;;7.99;100.00;100129.94;4951411;28;20053;-77
2023/11/08 06:10:43;;;;;;;14.20;10.13;;;;;;;8.06;100.00;100132.78;4973340;28;20129;-77
2023/11/08 06:13:09;;;;;;;14.43;9.77;;;;;;;8.06;100.00;100137.28;4957128;28;20074;-76
2023/11/08 06:15:35;;;;;;;17.63;9.85;;;;;;;7.98;100.00;100138.91;5009435;28;20088;-77
2023/11/08 06:18:00;;;;;;;13.25;8.98;;;;;;;7.92;100.00;100130.75;4945613;28;20092;-77
2023/11/08 06:20:26;;;;;;;15.85;10.00;;;;;;;8.03;100.00;100149.88;4984179;28;20021;-77
2023/11/08 06:22:51;;;;;;;14.00;9.47;;;;;;;8.10;100.00;100162.53;4945306;28;20031;-77
2023/11/08 06:25:17;;;;;;;23.03;10.77;;;;;;;8.00;100.00;100157.34;4979428;28;20483;-77
2023/11/08 06:27:42;;;;;;;20.45;10.00;;;;;;;7.99;100.00;100155.69;4991363;28;20043;-77
2023/11/08 06:30:08;;;;;;;16.80;11.90;;;;;;;7.96;100.00;100148.88;4959949;28;20070;-77
2023/11/08 06:32:34;;;;;;;21.27;10.43;;;;;;;7.91;100.00;100145.81;5006988;28;20353;-77
2023/11/08 06:35:02;;;;;;;17.63;10.32;;;;;;;7.92;100.00;100150.16;4994289;28;20083;-77
2023/11/08 06:37:28;;;;;;;21.40;10.95;;;;;;;7.76;100.00;100142.94;4946935;28;20477;-78
2023/11/08 06:39:53;;;;;;;15.82;9.98;;;;;;;7.85;100.00;100161.59;4993930;28;20035;-77
2023/11/08 06:42:18;;;;;;;17.30;10.77;;;;;;;7.87;100.00;100173.75;5000049;28;20068;-75
2023/11/08 06:44:44;;;;;;;16.43;9.77;;;;;;;7.85;100.00;100183.69;5001704;28;20092;-74
2023/11/08 06:47:10;;;;;;;19.25;10.60;;;;;;;7.77;100.00;100178.31;4954055;28;20106;-75
2023/11/08 06:49:36;;;;;;;19.65;11.32;;;;;;;7.92;100.00;100200.66;4988429;28;20052;-77
2023/11/08 06:52:02;;;;;;;17.25;11.00;;;;;;;7.95;100.00;100195.03;5015561;28;20541;-75
2023/11/08 06:54:27;;;;;;;18.43;10.57;;;;;;;7.92;100.00;100198.00;4980410;28;20037;-77
2023/11/08 06:56:52;;;;;;;16.40;10.50;;;;;;;7.95;100.00;100199.50;4967439;28;20330;-77
2023/11/08 06:59:18;;;;;;;18.87;11.60;;;;;;;7.81;100.00;100182.34;4989576;28;20035;-75
2023/11/08 07:01:43;;;;;;;27.83;11.00;;;;;;;7.93;100.00;100207.63;4956192;28;20122;-77
2023/11/08 07:04:08;;;;;;;26.40;13.47;;;;;;;7.94;100.00;100204.00;4968310;28;20475;-74
2023/11/08 07:06:34;;;;;;;23.77;11.43;;;;;;;7.99;100.00;100212.34;4979633;28;20423;-75
2023/11/08 07:08:59;;;;;;;18.03;11.57;;;;;;;7.94;100.00;100204.00;4968255;28;20023;-76
2023/11/08 07:11:27;;;;;;;18.38;10.05;;;;;;;8.10;100.00;100224.53;4979541;28;20096;-77
2023/11/08 07:13:52;;;;;;;25.85;12.80;;;;;;;7.97;100.00;100214.31;4969454;28;20038;-74
2023/11/08 07:16:18;;;;;;;24.63;11.90;;;;;;;7.97;100.00;100210.81;4947214;28;20039;-77
2023/11/08 07:18:44;;;;;;;17.33;11.02;;;;;;;8.07;100.00;100218.69;4961675;28;20030;-75
2023/11/08 07:21:19;;;;;;;20.75;10.30;;;;;;;8.04;100.00;100220.66;4998260;28;20042;-76
2023/11/08 07:23:45;;;;;;;18.30;11.15;;;;;;;8.14;100.00;100223.19;5017258;28;20085;-76
2023/11/08 07:26:13;;;;;;;17.80;9.68;;;;;;;8.19;100.00;100239.53;4983268;28;20496;-78
2023/11/08 07:28:40;;;;;;;17.45;10.68;;;;;;;8.27;100.00;100238.72;5034936;28;20614;-74
2023/11/08 07:31:08;;;;;;;16.55;9.75;;;;;;;8.37;100.00;100235.94;4966678;28;20097;-78
2023/11/08 07:33:34;;;;;;;17.10;10.02;;;;;;;8.33;100.00;100224.75;4980676;28;20017;-77
2023/11/08 07:36:00;;;;;;;17.80;10.90;;;;;;;8.34;100.00;100218.47;4966605;28;20126;-76
2023/11/08 07:38:25;;;;;;;16.57;9.90;;;;;;;8.44;100.00;100235.16;4960048;28;20118;-77
2023/11/08 07:40:52;;;;;;;15.10;9.25;;;;;;;8.31;100.00;100220.59;4985133;28;20396;-76
2023/11/08 07:43:17;;;;;;;17.08;9.90;;;;;;;8.42;100.00;100231.81;4978644;28;20031;-76
2023/11/08 07:45:43;;;;;;;14.75;8.18;;;;;;;8.53;100.00;100236.03;4944720;29;20034;-77
2023/11/08 07:48:08;;;;;;;17.90;9.93;;;;;;;8.50;100.00;100215.06;4970121;28;20031;-76
2023/11/08 07:50:34;;;;;;;22.33;10.03;;;;;;;8.52;100.00;100221.06;4949355;28;20045;-75
2023/11/08 07:52:59;;;;;;;15.48;8.95;;;;;;;8.45;100.00;100210.22;4939890;28;20031;-77
2023/11/08 07:55:25;;;;;;;14.75;9.88;;;;;;;8.49;100.00;100207.25;4948701;28;20047;-75
2023/11/08 07:57:50;;;;;;;20.98;9.60;;;;;;;8.57;100.00;100204.59;4944614;28;20030;-77
2023/11/08 08:00:22;;;;;;;15.00;9.20;;;;;;;8.63;100.00;100210.09;4939176;28;20035;-77
2023/11/08 08:02:48;;;;;;;14.30;9.88;;;;;;;8.79;100.00;100222.59;4954658;28;20301;-77
2023/11/08 08:05:14;;;;;;;16.58;9.73;;;;;;;9.34;100.00;100265.59;4928854;28;20023;-76
2023/11/08 08:07:39;;;;;;;13.57;8.68;;;;;;;9.03;100.00;100232.44;4947095;28;20097;-75
2023/11/08 08:10:06;;;;;;;14.23;8.57;;;;;;;8.82;100.00;100202.81;5006435;28;20042;-76
2023/11/08 08:12:35;;;;;;;18.08;8.77;;;;;;;8.69;100.00;100197.16;4974565;28;20430;-76
2023/11/08 08:15:00;;;;;;;12.75;8.73;;;;;;;8.67;100.00;100194.66;5025087;28;20040;-77
2023/11/08 08:17:26;;;;;;;14.20;9.20;;;;;;;8.71;100.00;100195.13;5021095;28;20040;-77
2023/11/08 08:19:55;;;;;;;13.27;8.57;;;;;;;8.58;100.00;100177.00;5018683;28;20405;-76
2023/11/08 08:22:21;;;;;;;13.77;9.60;;;;;;;8.72;100.00;100197.63;4974717;28;20479;-79
2023/11/08 08:24:48;;;;;;;12.32;8.10;;;;;;;8.72;100.00;100204.81;5048428;28;20119;-77
2023/11/08 08:27:14;;;;;;;14.30;8.68;;;;;;;8.68;100.00;100201.63;5047883;28;20031;-76
2023/11/08 08:29:39;;;;;;;12.93;7.93;;;;;;;8.55;100.00;100206.59;5005535;28;20128;-76
2023/11/08 08:32:05;;;;;;;14.70;8.30;;;;;;;8.71;100.00;100217.28;4940845;28;20039;-78
2023/11/08 08:34:30;;;;;;;12.35;7.93;;;;;;;8.73;100.00;100209.94;5028201;28;20037;-78
2023/11/08 08:36:56;;;;;;;11.70;6.70;;;;;;;8.51;100.00;100205.25;5021129;28;20132;-76
2023/11/08 08:39:27;;;;;;;;;;;;;;;8.57;100.00;100204.59;4991939;28;20471;-78
2023/11/08 08:41:53;;;;;;;14.10;7.38;;;;;;;8.67;100.00;100221.25;5049685;28;19913;-76
2023/11/08 08:44:18;;;;;;;11.20;7.85;;;;;;;8.71;100.00;100227.06;5026885;28;20388;-77
2023/11/08 08:46:44;;;;;;;12.70;8.20;;;;;;;8.58;100.00;100228.38;5033139;28;20057;-76
2023/11/08 08:49:09;;;;;;;10.63;7.10;;;;;;;8.65;100.00;100225.91;5040611;28;20040;-77
2023/11/08 08:51:35;;;;;;;12.55;7.57;;;;;;;8.60;100.00;100213.09;5047707;28;20076;-77
2023/11/08 08:54:00;;;;;;;14.87;7.37;;;;;;;8.76;100.00;100230.94;5006347;28;20042;-77
2023/11/08 08:56:27;;;;;;;11.77;7.90;;;;;;;8.67;100.00;100221.25;5040877;28;20294;-76
2023/11/08 08:58:53;;;;;;;10.25;7.25;;;;;;;8.72;100.00;100226.09;5027922;28;20291;-78
2023/11/08 09:01:18;;;;;;;10.80;6.27;;;;;;;8.81;100.00;100231.25;5002367;28;20038;-76
2023/11/08 09:03:45;;;;;;;9.52;6.68;;;;;;;8.80;100.00;100218.97;4985168;28;20574;-75
2023/11/08 09:06:11;;;;;;;11.43;6.32;;;;;;;8.84;100.00;100209.63;4965247;28;20122;-77
2023/11/08 09:08:37;;;;;;;12.32;7.05;;;;;;;8.58;100.00;100180.47;4943356;28;20032;-77
2023/11/08 09:11:03;;;;;;;9.15;5.97;;;;;;;8.71;100.00;100184.50;5021869;28;20043;-77
2023/11/08 09:13:28;;;;;;;11.40;6.57;;;;;;;8.67;100.00;100170.69;4956601;28;20126;-75
2023/11/08 09:15:54;;;;;;;8.80;5.28;;;;;;;8.87;100.00;100184.50;5047161;28;20136;-76
2023/11/08 09:18:20;;;;;;;12.63;5.37;;;;;;;8.85;100.00;100182.03;5029357;28;20043;-77
2023/11/08 09:20:47;;;;;;;9.20;6.20;;;;;;;8.87;100.00;100179.19;5028801;28;20464;-77
2023/11/08 09:23:12;;;;;;;15.43;5.45;;;;;;;9.58;100.00;100225.63;4958444;28;20039;-77
2023/11/08 09:25:38;;;;;;;8.43;5.10;;;;;;;9.67;100.00;100160.66;4959465;28;20694;-77
2023/11/08 09:28:03;;;;;;;8.57;4.80;;;;;;;9.58;100.00;100135.00;4965978;28;20087;-76
2023/11/08 09:30:30;;;;;;;6.80;4.13;;;;;;;9.83;100.00;100110.94;4978126;28;20775;-76
2023/11/08 09:32:56;;;;;;;7.18;4.28;;;;;;;9.71;100.00;100081.97;4989206;28;20043;-78
2023/11/08 09:35:22;;;;;;;9.87;4.13;;;;;;;9.68;100.00;100070.84;4971703;28;20543;-77
2023/11/08 09:37:47;;;;;;;9.77;4.13;;;;;;;9.82;100.00;100088.78;4987300;28;20279;-76
2023/11/08 09:40:14;;;;;;;6.63;3.73;;;;;;;9.57;100.00;100058.72;5037128;28;20040;-77
2023/11/08 09:42:40;;;;;;;12.05;5.90;;;;;;;9.86;100.00;100063.44;4964705;28;20046;-76
2023/11/08 09:45:11;;;;;;;7.88;3.97;;;;;;;9.90;100.00;100026.56;5026306;28;20033;-77
2023/11/08 09:47:37;;;;;;;5.53;3.33;;;;;;;10.00;100.00;100027.19;4978882;28;20443;-77
2023/11/08 09:50:08;;;;;;;6.38;3.60;;;;;;;9.77;100.00;99995.16;5063548;28;20465;-77
2023/11/08 09:52:34;;;;;;;8.55;4.35;;;;;;;9.84;100.00;100033.44;5062850;28;20029;-75
2023/11/08 09:55:00;;;;;;;6.20;4.60;;;;;;;9.98;100.00;100018.53;5008827;28;20020;-77
2023/11/08 09:57:26;;;;;;;11.13;4.90;;;;;;;9.96;100.00;100017.06;4973258;28;20063;-76
2023/11/08 09:59:52;;;;;;;7.30;4.22;;;;;;;10.09;100.00;100028.81;5019144;28;20027;-76
2023/11/08 10:02:18;;;;;;;9.05;3.88;;;;;;;10.20;100.00;100021.38;5028810;28;20047;-75
2023/11/08 10:04:44;;;;;;;6.68;4.15;;;;;;;9.92;100.00;99950.72;4971720;28;20545;-75
2023/11/08 10:07:10;;;;;;;;;;;;;;;9.84;100.00;99948.13;4978525;28;20031;-78
2023/11/08 10:09:38;;;;;;;6.90;3.88;;;;;;;9.73;100.00;99951.19;4945698;28;19915;-75
2023/11/08 10:12:05;;;;;;;10.65;4.72;;;;;;;9.83;100.00;99990.97;4964286;28;20017;-77
2023/11/08 10:14:34;;;;;;;8.02;5.00;;;;;;;9.75;100.00;99996.34;5063031;28;20123;-77
2023/11/08 10:17:02;;;;;;;6.57;4.18;;;;;;;9.66;100.00;100006.22;5013649;28;20106;-75
2023/11/08 10:19:41;;;;;;;8.20;4.32;;;;;;;9.79;100.00;100041.16;4997272;28;20029;-77
2023/11/08 10:22:17;;;;;;;13.25;5.10;;;;;;;9.82;100.00;100039.97;4975623;28;20035;-76
2023/11/08 10:24:57;;;;;;;5.90;3.97;;;;;;;9.72;100.00;100011.69;4992306;28;20040;-76
2023/11/08 10:27:24;;;;;;;9.98;5.85;;;;;;;9.68;100.00;99998.88;4998668;28;20059;-77
2023/11/08 10:29:50;;;;;;;11.18;5.22;;;;;;;9.68;100.00;100007.69;4994715;28;20051;-77
2023/11/08 10:32:20;;;;;;;10.52;4.85;;;;;;;9.69;100.00;100009.38;4959278;28;20039;-78
2023/11/08 10:34:46;;;;;;;7.45;4.22;;;;;;;9.73;100.00;100015.19;4962055;28;20462;-77
2023/11/08 10:37:22;;;;;;;10.63;4.57;;;;;;;9.67;100.00;100038.03;4987344;28;20019;-77
2023/11/08 10:39:47;;;;;;;13.77;5.68;;;;;;;9.68;100.00;100049.53;4945810;28;20454;-77
2023/11/08 10:42:13;;;;;;;8.93;5.40;;;;;;;9.62;100.00;100027.06;4982568;28;20037;-77
2023/11/08 10:44:39;;;;;;;8.38;5.10;;;;;;;9.79;100.00;100035.00;5009713;28;20272;-75
2023/11/08 10:47:04;;;;;;;9.48;5.03;;;;;;;9.64;100.00;100016.22;5023177;28;20068;-76
2023/11/08 10:49:32;;;;;;;11.60;5.22;;;;;;;9.78;100.00;100011.97;5019550;28;20126;-76
2023/11/08 10:51:57;;;;;;;8.93;4.57;;;;;;;9.96;100.00;100025.88;4989147;28;20023;-77
2023/11/08 10:54:23;;;;;;;9.60;5.73;;;;;;;9.92;100.00;99997.91;5017780;28;20074;-77
2023/11/08 10:56:50;;;;;;;9.83;4.90;;;;;;;10.06;100.00;99997.13;4972089;28;20027;-75
2023/11/08 10:59:18;;;;;;;10.88;4.47;;;;;;;10.29;100.00;99988.34;4994272;28;20044;-77
2023/11/08 11:01:45;;;;;;;8.48;4.05;;;;;;;10.20;100.00;99952.03;4962633;28;20041;-76
2023/11/08 11:04:13;;;;;;;9.27;4.43;;;;;;;10.40;100.00;99915.06;4958543;28;20384;-76
2023/11/08 11:06:40;;;;;;;7.80;3.70;;;;;;;10.73;100.00;99886.16;4978269;28;20079;-76
2023/11/08 11:09:10;;;;;;;8.68;3.70;;;;;;;10.93;100.00;99833.88;4934810;28;20031;-77
2023/11/08 11:11:56;;;;;;;6.85;4.05;;;;;;;10.35;100.00;99732.31;5042136;28;20132;-78
2023/11/08 11:14:37;;;;;;;6.88;3.85;;;;;;;10.69;100.00;99807.47;4999336;28;20516;-77
2023/11/08 11:17:11;;;;;;;9.00;3.88;;;;;;;10.47;100.00;99751.34;5005637;28;20033;-76
2023/11/08 11:19:41;;;;;;;6.78;3.80;;;;;;;10.19;100.00;99697.00;4968843;28;20040;-76